createdAt,value
2023-04-02T00:01:52.723Z,30.98
2023-04-02T00:04:56.259Z,30.76
2023-04-02T00:07:57.666Z,30.85
2023-04-02T00:11:19.708Z,30.84
2023-04-02T00:14:28.616Z,30.94
2023-04-02T00:17:29.868Z,30.91
2023-04-02T00:20:31.631Z,31.10
2023-04-02T00:23:32.708Z,30.85
2023-04-02T00:26:37.658Z,30.98
2023-04-02T00:29:44.692Z,30.96
2023-04-02T00:32:46.686Z,31.15
2023-04-02T00:35:52.707Z,31.25
2023-04-02T00:38:53.672Z,31.17
2023-04-02T00:41:54.708Z,31.04
2023-04-02T00:44:56.646Z,30.85
2023-04-02T00:47:57.695Z,30.92
2023-04-02T00:50:58.650Z,31.29
2023-04-02T00:54:00.689Z,31.09
2023-04-02T00:57:03.689Z,31.06
2023-04-02T01:00:15.674Z,30.91
2023-04-02T01:03:35.735Z,30.69
2023-04-02T01:06:37.676Z,30.65
2023-04-02T01:09:56.653Z,30.75
2023-04-02T01:13:17.681Z,31.03
2023-04-02T01:16:18.705Z,30.39
2023-04-02T01:19:51.859Z,30.68
2023-04-02T01:23:15.654Z,30.79
2023-04-02T01:26:22.678Z,30.89
2023-04-02T01:29:52.644Z,30.47
2023-04-02T01:32:53.736Z,30.81
2023-04-02T01:35:57.663Z,31.05
2023-04-02T01:39:11.670Z,30.38
2023-04-02T01:42:15.643Z,30.36
2023-04-02T01:45:17.664Z,30.19
2023-04-02T01:48:30.654Z,29.85
2023-04-02T01:51:39.677Z,30.32
2023-04-02T01:54:44.643Z,30.58
2023-04-02T01:57:45.684Z,30.03
2023-04-02T02:00:48.654Z,30.36
2023-04-02T02:03:50.688Z,30.25
2023-04-02T02:06:51.633Z,30.40
2023-04-02T02:09:52.701Z,30.31
2023-04-02T02:12:54.646Z,30.39
2023-04-02T02:15:55.713Z,30.51
2023-04-02T02:18:56.620Z,29.56
2023-04-02T02:21:59.834Z,29.85
2023-04-02T02:25:00.629Z,30.50
2023-04-02T02:28:01.673Z,29.98
2023-04-02T02:31:24.640Z,30.48
2023-04-02T02:34:30.678Z,30.72
2023-04-02T02:37:32.628Z,30.75
2023-04-02T02:40:45.672Z,30.95
2023-04-02T02:43:48.634Z,30.81
2023-04-02T02:46:51.693Z,30.00
2023-04-02T02:49:58.268Z,29.92
2023-04-02T02:53:00.677Z,30.81
2023-04-02T02:56:03.634Z,30.51
2023-04-02T02:59:07.660Z,30.73
2023-04-02T03:02:09.672Z,31.07
2023-04-02T03:05:11.658Z,30.13
2023-04-02T03:08:13.641Z,29.88
2023-04-02T03:11:18.642Z,30.43
2023-04-02T03:14:34.630Z,30.35
2023-04-02T03:18:04.719Z,29.70
2023-04-02T03:21:07.609Z,30.09
2023-04-02T03:24:14.831Z,29.68
2023-04-02T03:27:23.621Z,30.23
2023-04-02T03:30:47.665Z,29.98
2023-04-02T03:33:51.661Z,30.38
2023-04-02T03:37:03.656Z,30.32
2023-04-02T03:40:14.615Z,29.70
2023-04-02T03:43:25.661Z,30.04
2023-04-02T03:46:36.712Z,29.72
2023-04-02T03:49:41.655Z,29.07
2023-04-02T03:52:42.638Z,29.81
2023-04-02T03:55:46.664Z,29.70
2023-04-02T03:58:53.615Z,29.62
2023-04-02T04:02:02.689Z,29.93
2023-04-02T04:05:05.725Z,29.86
2023-04-02T04:08:08.664Z,30.17
2023-04-02T04:11:12.653Z,30.14
2023-04-02T04:14:33.664Z,30.17
2023-04-02T04:17:41.718Z,30.17
2023-04-02T04:20:52.649Z,30.40
2023-04-02T04:24:03.585Z,29.54
2023-04-02T04:27:04.763Z,29.96
2023-04-02T04:30:16.590Z,30.09
2023-04-02T04:33:28.656Z,29.63
2023-04-02T04:36:44.587Z,29.13
2023-04-02T04:39:59.646Z,28.74
2023-04-02T04:43:01.587Z,29.23
2023-04-02T04:46:07.721Z,29.57
2023-04-02T04:49:12.593Z,29.26
2023-04-02T04:52:20.646Z,29.61
2023-04-02T04:55:39.637Z,29.84
2023-04-02T04:58:52.676Z,29.07
2023-04-02T05:01:59.585Z,30.29
2023-04-02T05:05:04.679Z,29.39
2023-04-02T05:08:09.592Z,30.09
2023-04-02T05:11:11.673Z,29.35
2023-04-02T05:14:14.608Z,29.42
2023-04-02T05:17:21.667Z,29.51
2023-04-02T05:20:33.595Z,30.11
2023-04-02T05:23:47.669Z,29.19
2023-04-02T05:26:53.601Z,29.08
2023-04-02T05:29:56.823Z,28.94
2023-04-02T05:33:00.628Z,29.70
2023-04-02T05:36:04.737Z,29.80
2023-04-02T05:39:10.597Z,29.58
2023-04-02T05:42:20.662Z,29.30
2023-04-02T05:45:34.752Z,29.03
2023-04-02T05:48:42.617Z,29.19
2023-04-02T05:51:48.617Z,28.85
2023-04-02T05:54:56.628Z,28.52
2023-04-02T05:58:29.562Z,29.52
2023-04-02T06:01:29.614Z,29.73
2023-04-02T06:04:35.600Z,29.80
2023-04-02T06:07:44.616Z,29.36
2023-04-02T06:10:50.619Z,29.77
2023-04-02T06:13:52.643Z,30.25
2023-04-02T06:16:53.619Z,30.07
2023-04-02T06:19:54.661Z,29.61
2023-04-02T06:22:57.626Z,29.62
2023-04-02T06:26:06.636Z,29.15
2023-04-02T06:29:13.602Z,29.01
2023-04-02T06:32:15.805Z,29.27
2023-04-02T06:35:16.599Z,29.08
2023-04-02T06:38:31.641Z,29.54
2023-04-02T06:41:36.601Z,29.42
2023-04-02T06:44:57.641Z,28.92
2023-04-02T06:48:15.602Z,29.10
2023-04-02T06:51:23.639Z,29.26
2023-04-02T06:54:28.611Z,28.73
2023-04-02T06:57:33.739Z,29.09
2023-04-02T07:00:52.621Z,29.05
2023-04-02T07:04:09.622Z,28.98
2023-04-02T07:07:12.583Z,29.21
2023-04-02T07:10:15.640Z,29.85
2023-04-02T07:13:16.563Z,29.76
2023-04-02T07:16:17.707Z,29.06
2023-04-02T07:19:18.571Z,29.29
2023-04-02T07:22:22.642Z,28.99
2023-04-02T07:25:26.590Z,28.93
2023-04-02T07:28:27.626Z,28.60
2023-04-02T07:31:29.601Z,29.61
2023-04-02T07:34:30.674Z,30.03
2023-04-02T07:37:31.592Z,29.86
2023-04-02T07:40:33.625Z,29.67
2023-04-02T07:43:34.565Z,29.77
2023-04-02T07:46:35.636Z,29.69
2023-04-02T07:49:36.570Z,30.15
2023-04-02T07:52:39.137Z,28.93
2023-04-02T07:55:41.570Z,29.60
2023-04-02T07:58:43.601Z,29.33
2023-04-02T08:01:44.665Z,29.58
2023-04-02T08:04:45.624Z,30.02
2023-04-02T08:07:46.574Z,30.34
2023-04-02T08:10:47.607Z,29.69
2023-04-02T08:13:48.584Z,30.28
2023-04-02T08:16:58.744Z,30.43
2023-04-02T08:19:59.593Z,29.63
2023-04-02T08:23:00.632Z,29.15
2023-04-02T08:26:01.602Z,29.21
2023-04-02T08:29:02.627Z,29.81
2023-04-02T08:32:03.598Z,29.64
2023-04-02T08:35:04.786Z,30.30
2023-04-02T08:38:05.591Z,30.80
2023-04-02T08:41:08.624Z,29.82
2023-04-02T08:44:44.608Z,30.29
2023-04-02T08:47:46.647Z,30.22
2023-04-02T08:50:52.555Z,30.37
2023-04-02T08:53:53.611Z,30.46
2023-04-02T08:56:57.603Z,30.36
2023-04-02T08:59:58.615Z,29.93
2023-04-02T09:03:10.598Z,30.32
2023-04-02T09:06:13.145Z,30.13
2023-04-02T09:09:14.572Z,30.45
2023-04-02T09:12:17.613Z,30.35
2023-04-02T09:15:18.589Z,29.93
2023-04-02T09:18:29.634Z,30.13
2023-04-02T09:21:36.566Z,29.87
2023-04-02T09:24:37.706Z,30.54
2023-04-02T09:27:42.557Z,29.85
2023-04-02T09:30:43.618Z,29.69
2023-04-02T09:33:54.587Z,29.55
2023-04-02T09:36:55.803Z,29.98
2023-04-02T09:39:56.567Z,29.75
2023-04-02T09:42:57.617Z,30.18
2023-04-02T09:46:08.579Z,30.38
2023-04-02T09:49:10.580Z,30.00
2023-04-02T09:52:20.570Z,29.51
2023-04-02T09:55:21.598Z,29.61
2023-04-02T09:58:22.577Z,29.87
2023-04-02T10:01:38.671Z,29.52
2023-04-02T10:04:58.575Z,29.35
2023-04-02T10:08:00.603Z,29.67
2023-04-02T10:11:03.575Z,29.43
2023-04-02T10:14:07.590Z,29.84
2023-04-02T10:17:12.631Z,29.40
2023-04-02T10:20:39.048Z,29.85
2023-04-02T10:23:43.584Z,29.47
2023-04-02T10:26:53.605Z,29.68
2023-04-02T10:30:12.614Z,29.72
2023-04-02T10:33:16.590Z,29.52
2023-04-02T10:36:43.569Z,28.88
2023-04-02T10:40:03.721Z,29.13
2023-04-02T10:43:22.592Z,28.82
2023-04-02T10:46:33.637Z,29.19
2023-04-02T10:49:41.586Z,30.05
2023-04-02T10:52:42.585Z,29.65
2023-04-02T10:55:47.585Z,29.82
2023-04-02T10:58:51.594Z,29.40
2023-04-02T11:01:54.609Z,29.59
2023-04-02T11:04:58.452Z,29.71
2023-04-02T11:08:08.577Z,30.05
2023-04-02T11:11:14.636Z,29.69
2023-04-02T11:14:19.561Z,29.30
2023-04-02T11:17:25.615Z,29.35
2023-04-02T11:20:44.542Z,29.36
2023-04-02T11:23:46.600Z,29.20
2023-04-02T11:26:47.525Z,29.38
2023-04-02T11:29:49.608Z,29.75
2023-04-02T11:32:53.598Z,30.04
2023-04-02T11:35:54.656Z,30.02
2023-04-02T11:39:14.559Z,29.86
2023-04-02T11:42:19.912Z,30.05
2023-04-02T11:45:28.716Z,30.36
2023-04-02T11:48:22.617Z,29.68
2023-04-02T11:51:35.566Z,29.74
2023-04-02T11:54:39.611Z,29.65
2023-04-02T11:58:00.565Z,28.92
2023-04-02T12:01:15.608Z,29.34
2023-04-02T12:04:16.542Z,29.25
2023-04-02T12:07:24.589Z,29.12
2023-04-02T12:10:32.586Z,29.58
2023-04-02T12:13:53.592Z,30.24
2023-04-02T12:16:54.559Z,29.75
2023-04-02T12:19:59.606Z,29.65
2023-04-02T12:23:02.768Z,29.83
2023-04-02T12:26:15.602Z,29.70
2023-04-02T12:29:34.529Z,30.29
2023-04-02T12:32:38.636Z,30.48
2023-04-02T12:35:41.582Z,29.95
2023-04-02T12:38:46.557Z,30.08
2023-04-02T12:41:50.541Z,30.01
2023-04-02T12:44:51.753Z,29.82
2023-04-02T12:47:50.771Z,30.01
2023-04-02T12:50:48.597Z,29.10
2023-04-02T12:53:50.528Z,29.74
2023-04-02T12:56:51.584Z,29.54
2023-04-02T12:59:53.560Z,28.73
2023-04-02T13:02:58.667Z,29.21
2023-04-02T13:06:17.557Z,29.13
2023-04-02T13:09:19.571Z,29.04
2023-04-02T13:12:20.557Z,29.08
2023-04-02T13:15:21.598Z,29.46
2023-04-02T13:18:35.548Z,29.37
2023-04-02T13:21:40.575Z,29.21
2023-04-02T13:24:42.550Z,29.89
2023-04-02T13:27:43.594Z,30.05
2023-04-02T13:30:44.535Z,30.18
2023-04-02T13:33:45.587Z,30.04
2023-04-02T13:36:46.518Z,29.61
2023-04-02T13:39:47.579Z,30.19
2023-04-02T13:42:48.534Z,29.49
2023-04-02T13:45:52.760Z,29.61
2023-04-02T13:48:47.007Z,29.58
2023-04-02T13:51:44.611Z,29.97
2023-04-02T13:54:45.526Z,29.88
2023-04-02T13:57:46.603Z,30.03
2023-04-02T14:00:49.534Z,29.47
2023-04-02T14:03:50.572Z,29.37
2023-04-02T14:07:00.529Z,29.84
2023-04-02T14:10:01.597Z,30.39
2023-04-02T14:13:08.544Z,30.07
2023-04-02T14:16:18.657Z,29.89
2023-04-02T14:19:34.559Z,29.90
2023-04-02T14:22:41.585Z,29.79
2023-04-02T14:25:54.520Z,29.84
2023-04-02T14:29:13.563Z,29.86
2023-04-02T14:32:14.618Z,29.55
2023-04-02T14:35:34.568Z,29.36
2023-04-02T14:38:44.535Z,29.90
2023-04-02T14:41:45.678Z,30.40
2023-04-02T14:44:50.562Z,30.05
2023-04-02T14:47:54.757Z,29.70
2023-04-02T14:50:48.697Z,29.39
2023-04-02T14:53:49.577Z,29.57
2023-04-02T14:56:53.531Z,29.42
2023-04-02T14:59:54.550Z,29.49
2023-04-02T15:02:58.609Z,29.15
2023-04-02T15:06:00.785Z,29.45
2023-04-02T15:09:09.252Z,30.21
2023-04-02T15:12:15.544Z,30.07
2023-04-02T15:15:33.070Z,29.47
2023-04-02T15:18:39.555Z,29.77
2023-04-02T15:21:57.632Z,30.33
2023-04-02T15:25:09.549Z,30.14
2023-04-02T15:28:28.531Z,30.79
2023-04-02T15:31:29.619Z,29.87
2023-04-02T15:34:41.524Z,30.47
2023-04-02T15:37:57.568Z,30.72
2023-04-02T15:41:24.530Z,30.71
2023-04-02T15:44:27.568Z,30.15
2023-04-02T15:47:40.554Z,30.60
2023-04-02T15:50:59.760Z,29.89
2023-04-02T15:54:06.546Z,29.74
2023-04-02T15:57:19.643Z,30.18
2023-04-02T16:00:38.573Z,29.99
2023-04-02T16:03:45.575Z,30.25
2023-04-02T16:06:59.517Z,29.99
2023-04-02T16:10:00.557Z,30.22
2023-04-02T16:13:03.508Z,30.70
2023-04-02T16:16:06.552Z,30.25
2023-04-02T16:19:16.076Z,29.86
2023-04-02T16:22:35.549Z,30.27
2023-04-02T16:25:38.507Z,30.13
2023-04-02T16:28:44.558Z,30.13
2023-04-02T16:32:07.757Z,29.54
2023-04-02T16:38:30.488Z,30.39
2023-04-02T16:41:31.569Z,30.00
2023-04-02T16:44:42.513Z,30.04
2023-04-02T16:47:56.620Z,29.91
2023-04-02T16:50:57.509Z,29.63
2023-04-02T16:54:04.964Z,29.99
2023-04-02T16:57:34.559Z,29.22
2023-04-02T17:00:43.553Z,29.90
2023-04-02T17:04:02.556Z,29.47
2023-04-02T17:07:15.553Z,29.95
2023-04-02T17:10:25.494Z,29.40
2023-04-02T17:13:47.567Z,30.84
2023-04-02T17:16:54.497Z,30.20
2023-04-02T17:19:56.614Z,29.97
2023-04-02T17:22:57.511Z,30.14
2023-04-02T17:26:01.563Z,30.62
2023-04-02T17:29:04.516Z,30.63
2023-04-02T17:32:05.653Z,30.32
2023-04-02T17:35:06.521Z,30.55
2023-04-02T17:38:07.553Z,30.32
2023-04-02T17:41:13.506Z,29.88
2023-04-02T17:44:30.526Z,30.17
2023-04-02T17:47:36.543Z,31.11
2023-04-02T17:50:58.563Z,30.39
2023-04-02T17:54:17.514Z,30.10
2023-04-02T17:57:53.733Z,30.63
2023-04-02T18:00:56.508Z,29.82
2023-04-02T18:04:12.546Z,29.61
2023-04-02T18:07:23.502Z,29.57
2023-04-02T18:10:42.536Z,30.06
2023-04-02T18:13:45.487Z,30.05
2023-04-02T18:17:03.531Z,31.07
2023-04-02T18:20:10.514Z,30.29
2023-04-02T18:23:17.568Z,30.91
2023-04-02T18:26:18.493Z,31.21
2023-04-02T18:29:21.522Z,30.81
2023-04-02T18:32:37.537Z,30.30
2023-04-02T18:35:48.528Z,31.35
2023-04-02T18:39:08.490Z,31.46
2023-04-02T18:42:18.514Z,30.98
2023-04-02T18:45:19.508Z,30.45
2023-04-02T18:48:38.526Z,30.29
2023-04-02T18:51:41.497Z,30.65
2023-04-02T18:54:42.526Z,30.96
2023-04-02T18:57:45.516Z,30.39
2023-04-02T19:00:47.516Z,31.07
2023-04-02T19:03:54.565Z,30.68
2023-04-02T19:06:57.530Z,30.79
2023-04-02T19:09:58.499Z,31.31
2023-04-02T19:12:59.570Z,30.97
2023-04-02T19:16:02.578Z,31.35
2023-04-02T19:19:09.541Z,31.24
2023-04-02T19:22:25.489Z,31.41
2023-04-02T19:25:38.679Z,31.55
2023-04-02T19:29:02.520Z,31.37
2023-04-02T19:32:03.507Z,31.13
2023-04-02T19:35:30.493Z,31.21
2023-04-02T19:38:47.528Z,30.99
2023-04-02T19:42:01.500Z,31.26
2023-04-02T19:45:03.525Z,30.86
2023-04-02T19:48:04.543Z,30.53
2023-04-02T19:51:05.522Z,30.95
2023-04-02T19:54:06.490Z,30.94
2023-04-02T19:57:07.572Z,30.96
2023-04-02T20:00:08.482Z,31.21
2023-04-02T20:03:09.721Z,31.07
2023-04-02T20:06:10.491Z,30.73
2023-04-02T20:09:11.536Z,30.42
2023-04-02T20:12:12.478Z,30.58
2023-04-02T20:15:13.556Z,30.83
2023-04-02T20:18:14.464Z,30.80
2023-04-02T20:21:24.529Z,30.76
2023-04-02T20:24:25.479Z,31.01
2023-04-02T20:27:26.509Z,31.03
2023-04-02T20:30:27.495Z,31.03
2023-04-02T20:33:28.621Z,31.05
2023-04-02T20:36:29.493Z,31.07
2023-04-02T20:39:30.514Z,30.92
2023-04-02T20:42:31.504Z,31.00
2023-04-02T20:45:34.528Z,31.10
2023-04-02T20:48:37.490Z,30.67
2023-04-02T20:51:38.528Z,30.90
2023-04-02T20:54:39.492Z,30.89
2023-04-02T20:57:42.537Z,31.08
2023-04-02T21:00:43.516Z,31.01
2023-04-02T21:03:44.839Z,31.01
2023-04-02T21:06:46.494Z,30.96
2023-04-02T21:09:47.506Z,30.96
2023-04-02T21:12:48.472Z,31.01
2023-04-02T21:15:53.582Z,30.92
2023-04-02T21:18:54.488Z,31.03
2023-04-02T21:21:55.508Z,30.93
2023-04-02T21:24:56.457Z,30.96
2023-04-02T21:27:57.528Z,30.74
2023-04-02T21:30:58.447Z,31.08
2023-04-02T21:34:00.501Z,30.91
2023-04-02T21:37:01.468Z,30.69
2023-04-02T21:40:02.523Z,30.89
2023-04-02T21:43:03.481Z,31.05
2023-04-02T21:46:04.528Z,30.96
2023-04-02T21:49:05.474Z,30.43
2023-04-02T21:52:06.512Z,30.74
2023-04-02T21:55:07.473Z,30.83
2023-04-02T21:58:08.511Z,31.11
2023-04-02T22:01:16.956Z,30.80
2023-04-02T22:04:28.774Z,30.82
2023-04-02T22:07:29.472Z,30.90
2023-04-02T22:10:30.500Z,31.09
2023-04-02T22:13:31.461Z,30.81
2023-04-02T22:16:33.526Z,30.77
2023-04-02T22:19:34.578Z,30.15
2023-04-02T22:22:35.482Z,30.63
2023-04-02T22:25:36.471Z,31.05
2023-04-02T22:28:37.501Z,30.76
2023-04-02T22:31:39.526Z,30.93
2023-04-02T22:34:40.501Z,30.60
2023-04-02T22:37:41.441Z,30.57
2023-04-02T22:40:42.508Z,30.61
2023-04-02T22:43:43.436Z,31.19
2023-04-02T22:46:44.496Z,30.65
2023-04-02T22:49:45.443Z,31.02
2023-04-02T22:52:46.518Z,30.93
2023-04-02T22:55:47.453Z,30.91
2023-04-02T22:58:48.507Z,31.08
2023-04-02T23:01:49.572Z,30.89
2023-04-02T23:04:50.605Z,30.96
2023-04-02T23:07:51.459Z,30.71
2023-04-02T23:10:52.500Z,30.67
2023-04-02T23:13:53.461Z,30.73
2023-04-02T23:16:54.507Z,30.95
2023-04-02T23:19:55.465Z,30.80
2023-04-02T23:22:56.502Z,30.97
2023-04-02T23:25:57.447Z,30.79
2023-04-02T23:28:58.487Z,30.90
2023-04-02T23:31:59.442Z,30.99
2023-04-02T23:35:00.505Z,30.79
2023-04-02T23:38:04.445Z,31.00
2023-04-02T23:41:05.480Z,30.86
2023-04-02T23:44:06.472Z,30.54
2023-04-02T23:47:08.498Z,30.86
2023-04-02T23:50:09.458Z,30.50
2023-04-02T23:53:10.490Z,30.72
2023-04-02T23:56:11.456Z,30.85
2023-04-02T23:59:12.486Z,30.83
